METAR AND TAF INFORMATION
METAR FOR RJTF
ADDS - METARS form results

(0535 UTC 27 November 2021)
Data provider http://aviationweather.gov/metar/data/
 
METAR text: RJTF 270500Z 36015KT 9999 FEW030 BKN100 12/M05 Q1021
Conditions at: RJTF (CHOFU AIRPORT , JP) observed 0500 UTC 27 November 2021
Temperature: 12.0°C (54°F)
Dewpoint: -5.0°C (23°F) [RH = 30%]
Pressure (altimeter): 30.15 inches Hg (1021.0 mb)
Winds: from the N (360 degrees) at 17 MPH (15 knots; 7.7 m/s)
Visibility: 6 or more miles (10+ km)
Ceiling: 10000 feet AGL
Clouds: few clouds at 3000 feet AGL
broken clouds at 10000 feet AGL
Weather: no significant weather observed at this time

 AIRPORT MAP

 RUNWAY INFORMATION

 AIRPORT FREQUENCIES

 AIRPORT NEAR NAVIGATION AIDS





Powered by Virtual Airlines Manager

Maps by Rafael Santos